Arch, New Mexico
Current Conditions -  °F | °C
As of 1:58 PM on Tuesday 25 Nov 2014 (Local Time) from KCVS Reporting Station
Clear Clear  
Wind Chill: 54°   Ceiling: Unl
Heat Index: 54°   Visibility: 10mi
Dew Point:   Wind: 28mph
Humidity: 13%   Direction: 270°W
Pressure: 30.07"   Gusts: 38mph
Location:  34.1669°N, 103.266°W
Report Text: KCVS 252058Z AUTO 27024G33KT 10SM CLR 12/M16 A3007 RMK AO2 PK WND 27040/57 SLP178 T01201159 57052 $
Loading
Personal Weather Stations






























Interactive Weather Map New forecast layout! Learn more

10-Day Weather Forecast

Advertisements
Track Severe Weather on mobile